sensor_id;sensor_type;location;lat;lon;timestamp;P1;durP1;ratioP1;P2;durP2;ratioP2
9842;SDS011;4960;48.736;9.108;2022-11-21T00:00:11;0.57;;;0.57;;
9842;SDS011;4960;48.736;9.108;2022-11-21T00:02:40;0.50;;;0.50;;
9842;SDS011;4960;48.736;9.108;2022-11-21T00:05:07;0.50;;;0.50;;
9842;SDS011;4960;48.736;9.108;2022-11-21T00:07:34;0.73;;;0.33;;
9842;SDS011;4960;48.736;9.108;2022-11-21T00:10:01;2.10;;;0.50;;
9842;SDS011;4960;48.736;9.108;2022-11-21T00:12:29;1.13;;;0.50;;
9842;SDS011;4960;48.736;9.108;2022-11-21T00:14:56;0.30;;;0.30;;
9842;SDS011;4960;48.736;9.108;2022-11-21T00:17:23;1.03;;;0.53;;
9842;SDS011;4960;48.736;9.108;2022-11-21T00:19:51;0.70;;;0.60;;
9842;SDS011;4960;48.736;9.108;2022-11-21T00:22:18;0.30;;;0.30;;
9842;SDS011;4960;48.736;9.108;2022-11-21T00:24:45;0.73;;;0.50;;
9842;SDS011;4960;48.736;9.108;2022-11-21T00:27:13;0.50;;;0.50;;
9842;SDS011;4960;48.736;9.108;2022-11-21T00:29:40;0.97;;;0.40;;
9842;SDS011;4960;48.736;9.108;2022-11-21T00:32:07;0.30;;;0.30;;
9842;SDS011;4960;48.736;9.108;2022-11-21T00:34:34;0.30;;;0.30;;
9842;SDS011;4960;48.736;9.108;2022-11-21T00:37:03;0.40;;;0.40;;
9842;SDS011;4960;48.736;9.108;2022-11-21T00:39:30;0.40;;;0.40;;
9842;SDS011;4960;48.736;9.108;2022-11-21T00:41:57;0.40;;;0.40;;
9842;SDS011;4960;48.736;9.108;2022-11-21T00:44:24;0.50;;;0.40;;
9842;SDS011;4960;48.736;9.108;2022-11-21T00:46:51;0.40;;;0.30;;
9842;SDS011;4960;48.736;9.108;2022-11-21T00:49:18;0.33;;;0.33;;
9842;SDS011;4960;48.736;9.108;2022-11-21T00:51:45;0.50;;;0.50;;
9842;SDS011;4960;48.736;9.108;2022-11-21T00:54:14;1.90;;;0.37;;
9842;SDS011;4960;48.736;9.108;2022-11-21T00:56:41;0.40;;;0.40;;
9842;SDS011;4960;48.736;9.108;2022-11-21T00:59:08;0.40;;;0.40;;
9842;SDS011;4960;48.736;9.108;2022-11-21T01:01:35;0.70;;;0.60;;
9842;SDS011;4960;48.736;9.108;2022-11-21T01:04:03;0.60;;;0.40;;
9842;SDS011;4960;48.736;9.108;2022-11-21T01:06:31;0.67;;;0.40;;
9842;SDS011;4960;48.736;9.108;2022-11-21T01:08:58;0.57;;;0.57;;
9842;SDS011;4960;48.736;9.108;2022-11-21T01:11:26;0.50;;;0.50;;
9842;SDS011;4960;48.736;9.108;2022-11-21T01:13:54;3.00;;;0.40;;
9842;SDS011;4960;48.736;9.108;2022-11-21T01:16:22;0.60;;;0.43;;
9842;SDS011;4960;48.736;9.108;2022-11-21T01:18:50;0.57;;;0.50;;
9842;SDS011;4960;48.736;9.108;2022-11-21T01:21:20;0.50;;;0.50;;
9842;SDS011;4960;48.736;9.108;2022-11-21T01:23:48;1.73;;;0.60;;
9842;SDS011;4960;48.736;9.108;2022-11-21T01:26:15;0.70;;;0.70;;
9842;SDS011;4960;48.736;9.108;2022-11-21T01:28:44;2.00;;;0.67;;
9842;SDS011;4960;48.736;9.108;2022-11-21T01:31:12;1.20;;;0.73;;
9842;SDS011;4960;48.736;9.108;2022-11-21T01:33:40;2.23;;;0.80;;
9842;SDS011;4960;48.736;9.108;2022-11-21T01:36:08;0.83;;;0.40;;
9842;SDS011;4960;48.736;9.108;2022-11-21T01:38:36;2.53;;;0.70;;
9842;SDS011;4960;48.736;9.108;2022-11-21T01:41:03;1.60;;;0.80;;
9842;SDS011;4960;48.736;9.108;2022-11-21T01:43:30;1.13;;;0.50;;
9842;SDS011;4960;48.736;9.108;2022-11-21T01:46:00;1.17;;;0.63;;
9842;SDS011;4960;48.736;9.108;2022-11-21T01:48:29;0.93;;;0.70;;
9842;SDS011;4960;48.736;9.108;2022-11-21T01:50:58;1.47;;;0.57;;
9842;SDS011;4960;48.736;9.108;2022-11-21T01:53:28;1.73;;;0.53;;
9842;SDS011;4960;48.736;9.108;2022-11-21T01:55:55;2.17;;;0.73;;
9842;SDS011;4960;48.736;9.108;2022-11-21T01:58:23;2.43;;;0.80;;
9842;SDS011;4960;48.736;9.108;2022-11-21T02:00:50;1.70;;;0.73;;
9842;SDS011;4960;48.736;9.108;2022-11-21T02:03:20;2.40;;;0.77;;
9842;SDS011;4960;48.736;9.108;2022-11-21T02:05:48;3.10;;;0.80;;
9842;SDS011;4960;48.736;9.108;2022-11-21T02:08:16;1.63;;;0.63;;
9842;SDS011;4960;48.736;9.108;2022-11-21T02:10:46;1.00;;;0.50;;
9842;SDS011;4960;48.736;9.108;2022-11-21T02:13:15;0.57;;;0.57;;
9842;SDS011;4960;48.736;9.108;2022-11-21T02:15:43;2.00;;;0.67;;
9842;SDS011;4960;48.736;9.108;2022-11-21T02:18:10;2.57;;;0.70;;
9842;SDS011;4960;48.736;9.108;2022-11-21T02:20:38;0.80;;;0.80;;
9842;SDS011;4960;48.736;9.108;2022-11-21T02:23:08;1.97;;;0.60;;
9842;SDS011;4960;48.736;9.108;2022-11-21T02:25:40;0.97;;;0.60;;
9842;SDS011;4960;48.736;9.108;2022-11-21T02:28:10;1.60;;;0.60;;
9842;SDS011;4960;48.736;9.108;2022-11-21T02:30:38;2.80;;;0.80;;
9842;SDS011;4960;48.736;9.108;2022-11-21T02:33:06;2.43;;;0.80;;
9842;SDS011;4960;48.736;9.108;2022-11-21T02:35:33;2.73;;;0.60;;
9842;SDS011;4960;48.736;9.108;2022-11-21T02:38:02;0.90;;;0.60;;
9842;SDS011;4960;48.736;9.108;2022-11-21T02:40:31;0.53;;;0.50;;
9842;SDS011;4960;48.736;9.108;2022-11-21T02:43:02;1.07;;;0.70;;
9842;SDS011;4960;48.736;9.108;2022-11-21T02:45:32;3.43;;;0.50;;
9842;SDS011;4960;48.736;9.108;2022-11-21T02:48:00;0.53;;;0.53;;
9842;SDS011;4960;48.736;9.108;2022-11-21T02:50:28;1.63;;;0.57;;
9842;SDS011;4960;48.736;9.108;2022-11-21T02:52:56;0.60;;;0.60;;
9842;SDS011;4960;48.736;9.108;2022-11-21T02:55:23;0.70;;;0.60;;
9842;SDS011;4960;48.736;9.108;2022-11-21T02:57:51;1.30;;;0.50;;
9842;SDS011;4960;48.736;9.108;2022-11-21T03:00:20;1.17;;;0.73;;
9842;SDS011;4960;48.736;9.108;2022-11-21T03:02:47;0.47;;;0.47;;
9842;SDS011;4960;48.736;9.108;2022-11-21T03:05:15;0.47;;;0.47;;
9842;SDS011;4960;48.736;9.108;2022-11-21T03:07:43;0.50;;;0.50;;
9842;SDS011;4960;48.736;9.108;2022-11-21T03:10:11;1.10;;;0.80;;
9842;SDS011;4960;48.736;9.108;2022-11-21T03:12:38;0.50;;;0.50;;
9842;SDS011;4960;48.736;9.108;2022-11-21T03:15:06;1.43;;;0.40;;
9842;SDS011;4960;48.736;9.108;2022-11-21T03:17:35;0.43;;;0.40;;
9842;SDS011;4960;48.736;9.108;2022-11-21T03:20:03;0.43;;;0.40;;
9842;SDS011;4960;48.736;9.108;2022-11-21T03:22:30;0.40;;;0.40;;
9842;SDS011;4960;48.736;9.108;2022-11-21T03:24:57;0.40;;;0.40;;
9842;SDS011;4960;48.736;9.108;2022-11-21T03:27:25;2.23;;;0.50;;
9842;SDS011;4960;48.736;9.108;2022-11-21T03:29:52;0.40;;;0.40;;
9842;SDS011;4960;48.736;9.108;2022-11-21T03:32:19;0.40;;;0.40;;
9842;SDS011;4960;48.736;9.108;2022-11-21T03:34:47;0.40;;;0.40;;
9842;SDS011;4960;48.736;9.108;2022-11-21T03:37:15;1.47;;;0.50;;
9842;SDS011;4960;48.736;9.108;2022-11-21T03:39:42;1.33;;;0.37;;
9842;SDS011;4960;48.736;9.108;2022-11-21T03:42:09;1.90;;;0.50;;
9842;SDS011;4960;48.736;9.108;2022-11-21T03:44:36;0.97;;;0.90;;
9842;SDS011;4960;48.736;9.108;2022-11-21T03:47:03;0.40;;;0.40;;
9842;SDS011;4960;48.736;9.108;2022-11-21T03:49:31;0.80;;;0.40;;
9842;SDS011;4960;48.736;9.108;2022-11-21T03:51:59;0.60;;;0.50;;
9842;SDS011;4960;48.736;9.108;2022-11-21T03:54:26;0.40;;;0.40;;
9842;SDS011;4960;48.736;9.108;2022-11-21T03:56:54;0.90;;;0.40;;
9842;SDS011;4960;48.736;9.108;2022-11-21T03:59:21;0.37;;;0.37;;
9842;SDS011;4960;48.736;9.108;2022-11-21T04:01:48;1.03;;;0.50;;
9842;SDS011;4960;48.736;9.108;2022-11-21T04:04:17;1.03;;;0.63;;
9842;SDS011;4960;48.736;9.108;2022-11-21T04:06:44;0.50;;;0.40;;
9842;SDS011;4960;48.736;9.108;2022-11-21T04:09:13;0.73;;;0.53;;
9842;SDS011;4960;48.736;9.108;2022-11-21T04:11:40;0.70;;;0.50;;
9842;SDS011;4960;48.736;9.108;2022-11-21T04:14:07;0.70;;;0.70;;
9842;SDS011;4960;48.736;9.108;2022-11-21T04:16:34;0.80;;;0.30;;
9842;SDS011;4960;48.736;9.108;2022-11-21T04:19:02;1.73;;;0.50;;
9842;SDS011;4960;48.736;9.108;2022-11-21T04:21:29;0.70;;;0.63;;
9842;SDS011;4960;48.736;9.108;2022-11-21T04:23:56;1.07;;;0.67;;
9842;SDS011;4960;48.736;9.108;2022-11-21T04:26:25;0.93;;;0.40;;
9842;SDS011;4960;48.736;9.108;2022-11-21T04:28:52;0.37;;;0.33;;
9842;SDS011;4960;48.736;9.108;2022-11-21T04:31:19;2.00;;;0.57;;
9842;SDS011;4960;48.736;9.108;2022-11-21T04:33:46;1.07;;;0.60;;
9842;SDS011;4960;48.736;9.108;2022-11-21T04:36:13;1.23;;;0.40;;
9842;SDS011;4960;48.736;9.108;2022-11-21T04:38:40;0.40;;;0.40;;
9842;SDS011;4960;48.736;9.108;2022-11-21T04:41:08;1.67;;;0.63;;
9842;SDS011;4960;48.736;9.108;2022-11-21T04:43:36;0.50;;;0.50;;
9842;SDS011;4960;48.736;9.108;2022-11-21T04:46:03;0.50;;;0.50;;
9842;SDS011;4960;48.736;9.108;2022-11-21T04:48:31;0.60;;;0.50;;
9842;SDS011;4960;48.736;9.108;2022-11-21T04:50:58;0.43;;;0.40;;
9842;SDS011;4960;48.736;9.108;2022-11-21T04:53:25;3.27;;;0.70;;
9842;SDS011;4960;48.736;9.108;2022-11-21T04:55:52;2.33;;;0.60;;
9842;SDS011;4960;48.736;9.108;2022-11-21T04:58:20;0.77;;;0.63;;
9842;SDS011;4960;48.736;9.108;2022-11-21T05:00:48;1.77;;;0.60;;
9842;SDS011;4960;48.736;9.108;2022-11-21T05:03:15;0.70;;;0.60;;
9842;SDS011;4960;48.736;9.108;2022-11-21T05:05:42;0.50;;;0.50;;
9842;SDS011;4960;48.736;9.108;2022-11-21T05:08:09;0.40;;;0.40;;
9842;SDS011;4960;48.736;9.108;2022-11-21T05:10:37;0.87;;;0.50;;
9842;SDS011;4960;48.736;9.108;2022-11-21T05:13:18;0.70;;;0.47;;
9842;SDS011;4960;48.736;9.108;2022-11-21T05:15:54;2.03;;;0.40;;
9842;SDS011;4960;48.736;9.108;2022-11-21T05:18:22;0.50;;;0.50;;
9842;SDS011;4960;48.736;9.108;2022-11-21T05:20:49;1.70;;;0.70;;
9842;SDS011;4960;48.736;9.108;2022-11-21T05:23:16;1.40;;;0.80;;
9842;SDS011;4960;48.736;9.108;2022-11-21T05:25:43;0.87;;;0.50;;
9842;SDS011;4960;48.736;9.108;2022-11-21T05:28:10;1.93;;;0.60;;
9842;SDS011;4960;48.736;9.108;2022-11-21T05:30:37;1.40;;;0.73;;
9842;SDS011;4960;48.736;9.108;2022-11-21T05:33:06;0.87;;;0.60;;
9842;SDS011;4960;48.736;9.108;2022-11-21T05:35:33;0.83;;;0.60;;
9842;SDS011;4960;48.736;9.108;2022-11-21T05:38:02;0.70;;;0.67;;
9842;SDS011;4960;48.736;9.108;2022-11-21T05:40:29;1.60;;;0.80;;
9842;SDS011;4960;48.736;9.108;2022-11-21T05:42:56;0.87;;;0.80;;
9842;SDS011;4960;48.736;9.108;2022-11-21T05:45:41;1.53;;;0.90;;
9842;SDS011;4960;48.736;9.108;2022-11-21T05:48:10;2.27;;;0.90;;
9842;SDS011;4960;48.736;9.108;2022-11-21T05:50:37;2.07;;;0.90;;
9842;SDS011;4960;48.736;9.108;2022-11-21T05:53:04;1.17;;;0.70;;
9842;SDS011;4960;48.736;9.108;2022-11-21T05:55:33;1.83;;;0.80;;
9842;SDS011;4960;48.736;9.108;2022-11-21T05:58:01;2.50;;;0.80;;
9842;SDS011;4960;48.736;9.108;2022-11-21T06:00:28;0.87;;;0.87;;
9842;SDS011;4960;48.736;9.108;2022-11-21T06:02:55;5.57;;;0.90;;
9842;SDS011;4960;48.736;9.108;2022-11-21T06:05:41;2.83;;;1.43;;
9842;SDS011;4960;48.736;9.108;2022-11-21T06:08:09;4.83;;;0.80;;
9842;SDS011;4960;48.736;9.108;2022-11-21T06:10:36;2.23;;;0.70;;
9842;SDS011;4960;48.736;9.108;2022-11-21T06:13:03;1.63;;;1.00;;
9842;SDS011;4960;48.736;9.108;2022-11-21T06:15:46;1.70;;;1.37;;
9842;SDS011;4960;48.736;9.108;2022-11-21T06:18:13;0.80;;;0.63;;
9842;SDS011;4960;48.736;9.108;2022-11-21T06:20:42;1.43;;;1.10;;
9842;SDS011;4960;48.736;9.108;2022-11-21T06:23:09;2.77;;;1.50;;
9842;SDS011;4960;48.736;9.108;2022-11-21T06:25:37;4.87;;;1.13;;
9842;SDS011;4960;48.736;9.108;2022-11-21T06:28:04;3.00;;;1.47;;
9842;SDS011;4960;48.736;9.108;2022-11-21T06:30:31;3.73;;;1.37;;
9842;SDS011;4960;48.736;9.108;2022-11-21T06:32:59;1.70;;;1.00;;
9842;SDS011;4960;48.736;9.108;2022-11-21T06:35:26;1.30;;;1.07;;
9842;SDS011;4960;48.736;9.108;2022-11-21T06:37:54;2.93;;;1.30;;
9842;SDS011;4960;48.736;9.108;2022-11-21T06:40:22;2.77;;;1.33;;
9842;SDS011;4960;48.736;9.108;2022-11-21T06:42:49;2.40;;;1.40;;
9842;SDS011;4960;48.736;9.108;2022-11-21T06:45:16;1.70;;;1.20;;
9842;SDS011;4960;48.736;9.108;2022-11-21T06:47:43;2.70;;;1.30;;
9842;SDS011;4960;48.736;9.108;2022-11-21T06:50:11;1.27;;;1.10;;
9842;SDS011;4960;48.736;9.108;2022-11-21T06:52:38;0.97;;;0.97;;
9842;SDS011;4960;48.736;9.108;2022-11-21T06:55:07;3.73;;;1.20;;
9842;SDS011;4960;48.736;9.108;2022-11-21T06:57:35;3.90;;;1.20;;
9842;SDS011;4960;48.736;9.108;2022-11-21T07:00:02;1.63;;;0.90;;
9842;SDS011;4960;48.736;9.108;2022-11-21T07:02:29;5.53;;;1.13;;
9842;SDS011;4960;48.736;9.108;2022-11-21T07:04:57;1.63;;;1.20;;
9842;SDS011;4960;48.736;9.108;2022-11-21T07:07:24;2.63;;;0.90;;
9842;SDS011;4960;48.736;9.108;2022-11-21T07:09:51;1.00;;;1.00;;
9842;SDS011;4960;48.736;9.108;2022-11-21T07:12:20;2.87;;;1.30;;
9842;SDS011;4960;48.736;9.108;2022-11-21T07:15:05;1.00;;;1.00;;
9842;SDS011;4960;48.736;9.108;2022-11-21T07:17:32;2.20;;;1.00;;
9842;SDS011;4960;48.736;9.108;2022-11-21T07:19:59;1.10;;;1.00;;
9842;SDS011;4960;48.736;9.108;2022-11-21T07:22:26;1.43;;;1.30;;
9842;SDS011;4960;48.736;9.108;2022-11-21T07:24:53;3.37;;;1.47;;
9842;SDS011;4960;48.736;9.108;2022-11-21T07:27:22;1.70;;;1.53;;
9842;SDS011;4960;48.736;9.108;2022-11-21T07:29:49;5.27;;;2.13;;
9842;SDS011;4960;48.736;9.108;2022-11-21T07:32:17;3.87;;;1.70;;
9842;SDS011;4960;48.736;9.108;2022-11-21T07:34:44;4.97;;;1.50;;
9842;SDS011;4960;48.736;9.108;2022-11-21T07:37:11;4.77;;;2.03;;
9842;SDS011;4960;48.736;9.108;2022-11-21T07:39:38;3.40;;;1.73;;
9842;SDS011;4960;48.736;9.108;2022-11-21T07:42:05;2.57;;;1.13;;
9842;SDS011;4960;48.736;9.108;2022-11-21T07:44:34;2.43;;;1.40;;
9842;SDS011;4960;48.736;9.108;2022-11-21T07:47:01;6.37;;;2.03;;
9842;SDS011;4960;48.736;9.108;2022-11-21T07:49:28;2.83;;;1.63;;
9842;SDS011;4960;48.736;9.108;2022-11-21T07:51:55;3.70;;;2.20;;
9842;SDS011;4960;48.736;9.108;2022-11-21T07:54:24;6.30;;;1.60;;
9842;SDS011;4960;48.736;9.108;2022-11-21T07:56:51;2.00;;;1.50;;
9842;SDS011;4960;48.736;9.108;2022-11-21T07:59:18;2.07;;;1.50;;
9842;SDS011;4960;48.736;9.108;2022-11-21T08:01:46;3.03;;;1.43;;
9842;SDS011;4960;48.736;9.108;2022-11-21T08:04:14;5.53;;;1.30;;
9842;SDS011;4960;48.736;9.108;2022-11-21T08:06:41;2.23;;;1.20;;
9842;SDS011;4960;48.736;9.108;2022-11-21T08:09:08;5.53;;;1.53;;
9842;SDS011;4960;48.736;9.108;2022-11-21T08:11:35;5.17;;;1.63;;
9842;SDS011;4960;48.736;9.108;2022-11-21T08:14:03;2.63;;;1.57;;
9842;SDS011;4960;48.736;9.108;2022-11-21T08:16:30;2.13;;;1.53;;
9842;SDS011;4960;48.736;9.108;2022-11-21T08:18:59;6.60;;;1.67;;
9842;SDS011;4960;48.736;9.108;2022-11-21T08:21:26;3.03;;;1.60;;
9842;SDS011;4960;48.736;9.108;2022-11-21T08:23:53;6.03;;;1.70;;
9842;SDS011;4960;48.736;9.108;2022-11-21T08:26:21;4.70;;;1.23;;
9842;SDS011;4960;48.736;9.108;2022-11-21T08:28:48;6.20;;;1.90;;
9842;SDS011;4960;48.736;9.108;2022-11-21T08:31:15;2.63;;;1.60;;
9842;SDS011;4960;48.736;9.108;2022-11-21T08:33:42;3.43;;;1.47;;
9842;SDS011;4960;48.736;9.108;2022-11-21T08:36:11;5.63;;;1.57;;
9842;SDS011;4960;48.736;9.108;2022-11-21T08:38:38;4.90;;;1.40;;
9842;SDS011;4960;48.736;9.108;2022-11-21T08:41:05;4.93;;;1.50;;
9842;SDS011;4960;48.736;9.108;2022-11-21T08:43:50;3.33;;;1.37;;
9842;SDS011;4960;48.736;9.108;2022-11-21T08:46:17;6.90;;;1.27;;
9842;SDS011;4960;48.736;9.108;2022-11-21T08:48:44;6.30;;;1.43;;
9842;SDS011;4960;48.736;9.108;2022-11-21T08:51:13;5.47;;;1.47;;
9842;SDS011;4960;48.736;9.108;2022-11-21T08:53:40;7.90;;;1.40;;
9842;SDS011;4960;48.736;9.108;2022-11-21T08:56:07;5.73;;;1.60;;
9842;SDS011;4960;48.736;9.108;2022-11-21T08:58:34;2.83;;;1.03;;
9842;SDS011;4960;48.736;9.108;2022-11-21T09:01:02;8.17;;;1.33;;
9842;SDS011;4960;48.736;9.108;2022-11-21T09:03:30;4.43;;;1.20;;
9842;SDS011;4960;48.736;9.108;2022-11-21T09:05:57;3.10;;;1.40;;
9842;SDS011;4960;48.736;9.108;2022-11-21T09:08:26;3.20;;;1.00;;
9842;SDS011;4960;48.736;9.108;2022-11-21T09:10:53;7.37;;;1.30;;
9842;SDS011;4960;48.736;9.108;2022-11-21T09:13:20;5.00;;;1.30;;
9842;SDS011;4960;48.736;9.108;2022-11-21T09:15:47;3.93;;;1.20;;
9842;SDS011;4960;48.736;9.108;2022-11-21T09:18:32;5.30;;;1.30;;
9842;SDS011;4960;48.736;9.108;2022-11-21T09:20:59;3.63;;;1.17;;
9842;SDS011;4960;48.736;9.108;2022-11-21T09:23:28;3.50;;;1.10;;
9842;SDS011;4960;48.736;9.108;2022-11-21T09:25:55;4.33;;;1.40;;
9842;SDS011;4960;48.736;9.108;2022-11-21T09:28:22;5.43;;;1.63;;
9842;SDS011;4960;48.736;9.108;2022-11-21T09:30:49;5.53;;;1.13;;
9842;SDS011;4960;48.736;9.108;2022-11-21T09:33:16;5.03;;;1.40;;
9842;SDS011;4960;48.736;9.108;2022-11-21T09:35:44;5.93;;;1.10;;
9842;SDS011;4960;48.736;9.108;2022-11-21T09:38:11;8.07;;;1.00;;
9842;SDS011;4960;48.736;9.108;2022-11-21T09:40:40;5.97;;;1.10;;
9842;SDS011;4960;48.736;9.108;2022-11-21T09:43:22;3.80;;;1.10;;
9842;SDS011;4960;48.736;9.108;2022-11-21T09:45:54;7.07;;;1.93;;
9842;SDS011;4960;48.736;9.108;2022-11-21T09:48:24;6.23;;;1.30;;
9842;SDS011;4960;48.736;9.108;2022-11-21T09:50:54;3.57;;;1.00;;
9842;SDS011;4960;48.736;9.108;2022-11-21T09:53:23;4.47;;;1.10;;
9842;SDS011;4960;48.736;9.108;2022-11-21T09:55:54;7.67;;;1.10;;
9842;SDS011;4960;48.736;9.108;2022-11-21T09:58:24;3.93;;;1.03;;
9842;SDS011;4960;48.736;9.108;2022-11-21T10:00:53;3.27;;;1.13;;
9842;SDS011;4960;48.736;9.108;2022-11-21T10:03:20;1.80;;;0.90;;
9842;SDS011;4960;48.736;9.108;2022-11-21T10:05:48;4.37;;;1.40;;
9842;SDS011;4960;48.736;9.108;2022-11-21T10:08:19;5.60;;;1.20;;
9842;SDS011;4960;48.736;9.108;2022-11-21T10:10:52;4.03;;;1.33;;
9842;SDS011;4960;48.736;9.108;2022-11-21T10:13:26;3.37;;;1.10;;
9842;SDS011;4960;48.736;9.108;2022-11-21T10:15:56;4.17;;;1.07;;
9842;SDS011;4960;48.736;9.108;2022-11-21T10:18:30;4.67;;;1.00;;
9842;SDS011;4960;48.736;9.108;2022-11-21T10:21:02;5.67;;;1.30;;
9842;SDS011;4960;48.736;9.108;2022-11-21T10:23:42;6.70;;;0.90;;
9842;SDS011;4960;48.736;9.108;2022-11-21T10:26:14;4.37;;;1.33;;
9842;SDS011;4960;48.736;9.108;2022-11-21T10:28:44;4.30;;;1.03;;
9842;SDS011;4960;48.736;9.108;2022-11-21T10:31:13;3.40;;;1.00;;
9842;SDS011;4960;48.736;9.108;2022-11-21T10:33:41;6.93;;;1.30;;
9842;SDS011;4960;48.736;9.108;2022-11-21T10:36:11;3.17;;;1.33;;
9842;SDS011;4960;48.736;9.108;2022-11-21T10:38:40;3.07;;;1.10;;
9842;SDS011;4960;48.736;9.108;2022-11-21T10:41:11;3.50;;;0.90;;
9842;SDS011;4960;48.736;9.108;2022-11-21T10:43:42;5.33;;;1.57;;
9842;SDS011;4960;48.736;9.108;2022-11-21T10:46:30;3.40;;;1.03;;
9842;SDS011;4960;48.736;9.108;2022-11-21T10:48:58;3.50;;;1.10;;
9842;SDS011;4960;48.736;9.108;2022-11-21T10:51:33;4.27;;;1.30;;
9842;SDS011;4960;48.736;9.108;2022-11-21T10:54:04;3.80;;;1.30;;
9842;SDS011;4960;48.736;9.108;2022-11-21T10:56:49;3.03;;;1.00;;
9842;SDS011;4960;48.736;9.108;2022-11-21T10:59:19;3.70;;;1.00;;
9842;SDS011;4960;48.736;9.108;2022-11-21T11:01:54;4.40;;;1.20;;
9842;SDS011;4960;48.736;9.108;2022-11-21T11:04:22;4.53;;;1.33;;
9842;SDS011;4960;48.736;9.108;2022-11-21T11:06:49;6.83;;;1.60;;
9842;SDS011;4960;48.736;9.108;2022-11-21T11:09:24;8.63;;;1.40;;
9842;SDS011;4960;48.736;9.108;2022-11-21T11:11:52;3.00;;;1.00;;
9842;SDS011;4960;48.736;9.108;2022-11-21T11:14:27;5.50;;;1.20;;
9842;SDS011;4960;48.736;9.108;2022-11-21T11:16:57;3.97;;;1.07;;
9842;SDS011;4960;48.736;9.108;2022-11-21T11:19:25;4.33;;;1.10;;
9842;SDS011;4960;48.736;9.108;2022-11-21T11:21:53;6.90;;;2.10;;
9842;SDS011;4960;48.736;9.108;2022-11-21T11:24:22;3.73;;;1.00;;
9842;SDS011;4960;48.736;9.108;2022-11-21T11:26:52;6.23;;;1.10;;
9842;SDS011;4960;48.736;9.108;2022-11-21T11:29:21;3.93;;;1.10;;
9842;SDS011;4960;48.736;9.108;2022-11-21T11:31:51;2.30;;;0.83;;
9842;SDS011;4960;48.736;9.108;2022-11-21T11:34:20;2.13;;;0.97;;
9842;SDS011;4960;48.736;9.108;2022-11-21T11:39:38;3.40;;;0.73;;
9842;SDS011;4960;48.736;9.108;2022-11-21T11:42:13;3.00;;;1.10;;
9842;SDS011;4960;48.736;9.108;2022-11-21T11:45:06;4.97;;;1.10;;
9842;SDS011;4960;48.736;9.108;2022-11-21T11:47:53;3.30;;;1.00;;
9842;SDS011;4960;48.736;9.108;2022-11-21T11:50:22;3.10;;;1.00;;
9842;SDS011;4960;48.736;9.108;2022-11-21T11:52:52;2.40;;;1.00;;
9842;SDS011;4960;48.736;9.108;2022-11-21T11:55:23;2.23;;;1.03;;
9842;SDS011;4960;48.736;9.108;2022-11-21T11:57:52;3.90;;;0.93;;
9842;SDS011;4960;48.736;9.108;2022-11-21T12:00:23;3.30;;;1.40;;
9842;SDS011;4960;48.736;9.108;2022-11-21T12:02:54;3.47;;;1.10;;
9842;SDS011;4960;48.736;9.108;2022-11-21T12:05:25;2.83;;;1.10;;
9842;SDS011;4960;48.736;9.108;2022-11-21T12:07:58;4.27;;;1.90;;
9842;SDS011;4960;48.736;9.108;2022-11-21T12:10:29;4.97;;;1.50;;
9842;SDS011;4960;48.736;9.108;2022-11-21T12:13:02;3.17;;;1.10;;
9842;SDS011;4960;48.736;9.108;2022-11-21T12:15:31;3.07;;;0.80;;
9842;SDS011;4960;48.736;9.108;2022-11-21T12:18:20;3.70;;;1.20;;
9842;SDS011;4960;48.736;9.108;2022-11-21T12:20:52;3.77;;;1.07;;
9842;SDS011;4960;48.736;9.108;2022-11-21T12:23:21;5.43;;;1.30;;
9842;SDS011;4960;48.736;9.108;2022-11-21T12:25:51;5.23;;;1.30;;
9842;SDS011;4960;48.736;9.108;2022-11-21T12:28:21;5.00;;;1.27;;
9842;SDS011;4960;48.736;9.108;2022-11-21T12:30:55;4.47;;;1.20;;
9842;SDS011;4960;48.736;9.108;2022-11-21T12:33:25;3.90;;;1.47;;
9842;SDS011;4960;48.736;9.108;2022-11-21T12:35:57;7.07;;;1.43;;
9842;SDS011;4960;48.736;9.108;2022-11-21T12:38:34;9.83;;;1.50;;
9842;SDS011;4960;48.736;9.108;2022-11-21T12:41:07;5.53;;;1.27;;
9842;SDS011;4960;48.736;9.108;2022-11-21T12:43:53;4.10;;;0.93;;
9842;SDS011;4960;48.736;9.108;2022-11-21T12:46:27;1.97;;;1.00;;
9842;SDS011;4960;48.736;9.108;2022-11-21T12:48:58;3.10;;;1.20;;
9842;SDS011;4960;48.736;9.108;2022-11-21T12:51:51;2.67;;;1.07;;
9842;SDS011;4960;48.736;9.108;2022-11-21T12:57:30;3.23;;;1.10;;
9842;SDS011;4960;48.736;9.108;2022-11-21T13:00:03;4.67;;;1.23;;
9842;SDS011;4960;48.736;9.108;2022-11-21T13:02:36;2.90;;;0.90;;
9842;SDS011;4960;48.736;9.108;2022-11-21T13:05:05;2.67;;;1.07;;
9842;SDS011;4960;48.736;9.108;2022-11-21T13:07:37;4.13;;;1.20;;
9842;SDS011;4960;48.736;9.108;2022-11-21T13:10:05;4.03;;;1.10;;
9842;SDS011;4960;48.736;9.108;2022-11-21T13:12:39;1.97;;;1.00;;
9842;SDS011;4960;48.736;9.108;2022-11-21T13:15:12;2.70;;;1.00;;
9842;SDS011;4960;48.736;9.108;2022-11-21T13:17:43;4.53;;;1.30;;
9842;SDS011;4960;48.736;9.108;2022-11-21T13:20:16;3.03;;;0.97;;
9842;SDS011;4960;48.736;9.108;2022-11-21T13:22:51;5.13;;;1.40;;
9842;SDS011;4960;48.736;9.108;2022-11-21T13:25:34;5.20;;;1.10;;
9842;SDS011;4960;48.736;9.108;2022-11-21T13:28:22;3.50;;;1.20;;
9842;SDS011;4960;48.736;9.108;2022-11-21T13:30:49;3.40;;;1.20;;
9842;SDS011;4960;48.736;9.108;2022-11-21T13:35:59;3.27;;;1.30;;
9842;SDS011;4960;48.736;9.108;2022-11-21T13:38:28;5.10;;;1.50;;
9842;SDS011;4960;48.736;9.108;2022-11-21T13:40:55;4.50;;;1.00;;
9842;SDS011;4960;48.736;9.108;2022-11-21T13:43:39;6.93;;;2.23;;
9842;SDS011;4960;48.736;9.108;2022-11-21T13:46:07;8.07;;;1.40;;
9842;SDS011;4960;48.736;9.108;2022-11-21T13:56:54;6.13;;;1.33;;
9842;SDS011;4960;48.736;9.108;2022-11-21T13:59:28;4.50;;;1.20;;
9842;SDS011;4960;48.736;9.108;2022-11-21T14:02:05;4.67;;;1.40;;
9842;SDS011;4960;48.736;9.108;2022-11-21T14:04:56;7.10;;;1.33;;
9842;SDS011;4960;48.736;9.108;2022-11-21T14:07:25;6.43;;;1.17;;
9842;SDS011;4960;48.736;9.108;2022-11-21T14:09:54;3.73;;;1.30;;
9842;SDS011;4960;48.736;9.108;2022-11-21T14:12:25;4.67;;;1.20;;
9842;SDS011;4960;48.736;9.108;2022-11-21T14:14:54;3.63;;;1.23;;
9842;SDS011;4960;48.736;9.108;2022-11-21T14:17:34;3.37;;;1.23;;
9842;SDS011;4960;48.736;9.108;2022-11-21T14:20:08;2.33;;;1.10;;
9842;SDS011;4960;48.736;9.108;2022-11-21T14:22:39;4.80;;;1.40;;
9842;SDS011;4960;48.736;9.108;2022-11-21T14:25:08;5.67;;;1.10;;
9842;SDS011;4960;48.736;9.108;2022-11-21T14:27:42;6.50;;;1.47;;
9842;SDS011;4960;48.736;9.108;2022-11-21T14:30:24;7.33;;;2.50;;
9842;SDS011;4960;48.736;9.108;2022-11-21T14:32:52;6.27;;;2.47;;
9842;SDS011;4960;48.736;9.108;2022-11-21T14:35:20;3.90;;;1.40;;
9842;SDS011;4960;48.736;9.108;2022-11-21T14:37:47;4.07;;;1.70;;
9842;SDS011;4960;48.736;9.108;2022-11-21T14:40:18;7.27;;;2.30;;
9842;SDS011;4960;48.736;9.108;2022-11-21T14:42:47;7.37;;;2.20;;
9842;SDS011;4960;48.736;9.108;2022-11-21T14:45:15;3.80;;;1.83;;
9842;SDS011;4960;48.736;9.108;2022-11-21T14:47:47;8.20;;;1.80;;
9842;SDS011;4960;48.736;9.108;2022-11-21T14:50:24;7.87;;;1.70;;
9842;SDS011;4960;48.736;9.108;2022-11-21T14:52:51;3.90;;;1.60;;
9842;SDS011;4960;48.736;9.108;2022-11-21T14:55:23;8.87;;;2.10;;
9842;SDS011;4960;48.736;9.108;2022-11-21T14:57:52;9.40;;;1.83;;
9842;SDS011;4960;48.736;9.108;2022-11-21T15:00:20;5.90;;;1.73;;
9842;SDS011;4960;48.736;9.108;2022-11-21T15:02:49;7.70;;;1.40;;
9842;SDS011;4960;48.736;9.108;2022-11-21T15:05:16;5.57;;;1.57;;
9842;SDS011;4960;48.736;9.108;2022-11-21T15:07:45;3.37;;;1.23;;
9842;SDS011;4960;48.736;9.108;2022-11-21T15:10:13;4.87;;;1.83;;
9842;SDS011;4960;48.736;9.108;2022-11-21T15:12:43;6.03;;;2.20;;
9842;SDS011;4960;48.736;9.108;2022-11-21T15:15:17;9.17;;;2.73;;
9842;SDS011;4960;48.736;9.108;2022-11-21T15:17:45;7.37;;;2.60;;
9842;SDS011;4960;48.736;9.108;2022-11-21T15:20:17;10.37;;;2.93;;
9842;SDS011;4960;48.736;9.108;2022-11-21T15:22:45;11.07;;;4.83;;
9842;SDS011;4960;48.736;9.108;2022-11-21T15:25:14;8.20;;;4.17;;
9842;SDS011;4960;48.736;9.108;2022-11-21T15:27:42;9.73;;;4.00;;
9842;SDS011;4960;48.736;9.108;2022-11-21T15:30:21;8.53;;;4.80;;
9842;SDS011;4960;48.736;9.108;2022-11-21T15:32:59;7.77;;;4.07;;
9842;SDS011;4960;48.736;9.108;2022-11-21T15:35:27;6.60;;;3.77;;
9842;SDS011;4960;48.736;9.108;2022-11-21T15:37:54;5.20;;;2.83;;
9842;SDS011;4960;48.736;9.108;2022-11-21T15:40:21;8.33;;;3.53;;
9842;SDS011;4960;48.736;9.108;2022-11-21T15:42:48;7.03;;;2.90;;
9842;SDS011;4960;48.736;9.108;2022-11-21T15:45:19;5.10;;;3.10;;